Time;durP1;ratioP1;P1;durP2;ratioP2;P2;SDS_P1;SDS_P2;PMS_P1;PMS_P2;Temp;Humidity;BMP_temperature;BMP_pressure;BME280_temperature;BME280_humidity;BME280_pressure;Samples;Min_cycle;Max_cycle;Signal;HPM_P1;HPM_P2
2023/05/11 00:01:04;;;;;;;7.90;5.57;;;;;;;;;;4902025;29;20127;-65
2023/05/11 00:03:29;;;;;;;7.05;5.00;;;;;;;;;;4922562;29;20378;-65
2023/05/11 00:05:55;;;;;;;10.32;5.07;;;;;;;;;;4919865;29;20836;-65
2023/05/11 00:08:20;;;;;;;9.17;5.17;;;;;;;;;;4921485;29;20485;-65
2023/05/11 00:10:48;;;;;;;7.13;5.00;;;;;;;;;;4919104;29;20307;-64
2023/05/11 00:13:13;;;;;;;8.65;5.65;;;;;;;;;;4920739;29;20036;-65
2023/05/11 00:15:39;;;;;;;10.32;5.63;;;;;;;;;;4923357;29;20027;-64
2023/05/11 00:18:04;;;;;;;7.30;5.40;;;;;;;;;;4905931;29;20394;-65
2023/05/11 00:20:29;;;;;;;7.78;5.55;;;;;;;;;;4926053;29;20055;-64
2023/05/11 00:22:55;;;;;;;9.48;5.63;;;;;;;;;;4920831;29;20513;-66
2023/05/11 00:25:20;;;;;;;7.28;5.43;;;;;;;;;;4921552;29;20391;-66
2023/05/11 00:27:45;;;;;;;10.07;5.40;;;;;;;;;;4920842;29;20058;-67
2023/05/11 00:30:12;;;;;;;11.13;5.05;;;;;;;;;;4921680;29;20039;-65
2023/05/11 00:32:37;;;;;;;8.05;5.60;;;;;;;;;;4924479;29;20843;-66
2023/05/11 00:35:02;;;;;;;8.80;5.27;;;;;;;;;;4920954;29;20060;-67
2023/05/11 00:37:27;;;;;;;8.10;5.03;;;;;;;;;;4922102;29;20271;-67
2023/05/11 00:39:53;;;;;;;7.67;4.60;;;;;;;;;;4921436;29;20028;-66
2023/05/11 00:42:18;;;;;;;9.03;4.63;;;;;;;;;;4924290;29;20063;-66
2023/05/11 00:44:43;;;;;;;7.55;4.18;;;;;;;;;;4919227;29;20743;-68
2023/05/11 00:47:09;;;;;;;6.63;4.50;;;;;;;;;;4920210;29;20036;-66
2023/05/11 00:49:34;;;;;;;6.73;4.50;;;;;;;;;;4921839;29;20114;-66
2023/05/11 00:52:01;;;;;;;7.47;4.10;;;;;;;;;;4914395;29;20281;-66
2023/05/11 00:54:27;;;;;;;7.90;4.18;;;;;;;;;;4931419;29;20334;-67
2023/05/11 00:56:52;;;;;;;5.95;4.38;;;;;;;;;;4932877;29;20035;-66
2023/05/11 00:59:17;;;;;;;6.03;4.30;;;;;;;;;;4930426;29;20032;-66
2023/05/11 01:01:43;;;;;;;6.90;4.10;;;;;;;;;;4934379;29;20070;-66
2023/05/11 01:04:08;;;;;;;5.63;3.93;;;;;;;;;;4928242;29;20038;-67
2023/05/11 01:06:34;;;;;;;9.57;4.50;;;;;;;;;;4919357;29;20772;-67
2023/05/11 01:09:07;;;;;;;5.28;4.15;;;;;;;;;;4922551;29;20032;-67
2023/05/11 01:11:36;;;;;;;7.97;4.32;;;;;;;;;;4905976;29;20020;-67
2023/05/11 01:14:13;;;;;;;8.83;3.87;;;;;;;;;;4919633;29;20395;-67
2023/05/11 01:16:43;;;;;;;5.05;3.70;;;;;;;8.78;nan;100621.53;4919230;29;20075;-68
2023/05/11 01:19:18;;;;;;;6.28;3.80;;;;;;;;;;4918172;29;20126;-67
2023/05/11 01:21:46;;;;;;;5.40;3.72;;;;;;;;;;4918336;29;20020;-68
2023/05/11 01:24:19;;;;;;;6.57;3.90;;;;;;;;;;4921448;29;20094;-67
2023/05/11 01:26:51;;;;;;;5.65;3.85;;;;;;;;;;4919518;29;20067;-65
2023/05/11 01:29:22;;;;;;;5.57;4.18;;;;;;;;;;4919581;29;20498;-66
2023/05/11 01:31:48;;;;;;;7.53;4.30;;;;;;;;;;4920029;29;20087;-66
2023/05/11 01:34:18;;;;;;;8.00;4.05;;;;;;;;;;4923472;29;20030;-66
2023/05/11 01:36:48;;;;;;;9.25;4.07;;;;;;;;;;4921794;29;20106;-66
2023/05/11 01:39:14;;;;;;;8.88;3.90;;;;;;;;;;4922305;29;20155;-66
2023/05/11 01:41:40;;;;;;;4.65;3.47;;;;;;;;;;4921408;29;20549;-66
2023/05/11 01:44:08;;;;;;;8.30;4.18;;;;;;;;;;4921300;29;20040;-65
2023/05/11 01:46:33;;;;;;;5.32;3.80;;;;;;;;;;4923802;29;20119;-66
2023/05/11 01:49:00;;;;;;;5.00;3.83;;;;;;;;;;4920553;29;20103;-66
2023/05/11 01:51:27;;;;;;;6.75;4.32;;;;;;;;;;4903852;29;20127;-67
2023/05/11 01:53:53;;;;;;;9.10;3.50;;;;;;;;;;4902133;29;20511;-68
2023/05/11 01:56:20;;;;;;;6.55;3.97;;;;;;;;;;4920098;29;20071;-68
2023/05/11 01:58:45;;;;;;;7.15;4.05;;;;;;;;;;4921149;29;20397;-67
2023/05/11 02:01:13;;;;;;;8.52;3.92;;;;;;;;;;4920990;29;20028;-67
2023/05/11 02:03:39;;;;;;;9.00;3.90;;;;;;;;;;4918812;29;20028;-66
2023/05/11 02:06:04;;;;;;;6.50;4.38;;;;;;;;;;4919697;29;20067;-66
2023/05/11 02:08:31;;;;;;;5.38;3.40;;;;;;;;;;4920213;29;20059;-69
2023/05/11 02:10:57;;;;;;;6.60;4.00;;;;;;;;;;4918499;29;20071;-69
2023/05/11 02:13:23;;;;;;;5.30;3.72;;;;;;;;;;4924186;29;20064;-67
2023/05/11 02:15:50;;;;;;;9.02;3.75;;;;;;;;;;4910241;29;20039;-68
2023/05/11 02:18:15;;;;;;;8.68;3.85;;;;;;;;;;4922197;29;20036;-67
2023/05/11 02:20:42;;;;;;;7.18;3.80;;;;;;;;;;4923982;29;20383;-68
2023/05/11 02:23:07;;;;;;;6.47;3.63;;;;;;;;;;4916203;29;20079;-65
2023/05/11 02:25:33;;;;;;;5.95;3.45;;;;;;;;;;4921416;29;20450;-66
2023/05/11 02:27:58;;;;;;;5.90;3.97;;;;;;;;;;4897719;29;20547;-67
2023/05/11 02:30:25;;;;;;;5.43;3.92;;;;;;;;;;4899206;29;20032;-66
2023/05/11 02:32:53;;;;;;;6.72;3.72;;;;;;;;;;4905722;29;20023;-67
2023/05/11 02:35:27;;;;;;;8.57;3.83;;;;;;;;;;4903175;29;20037;-65
2023/05/11 02:37:54;;;;;;;6.15;3.67;;;;;;;;;;4902341;29;20067;-67
2023/05/11 02:40:24;;;;;;;7.00;4.05;;;;;;;;;;4901967;29;20123;-67
2023/05/11 02:42:53;;;;;;;5.57;3.40;;;;;;;;;;4905203;29;20119;-68
2023/05/11 02:45:19;;;;;;;5.78;3.80;;;;;;;;;;4907267;29;20050;-67
2023/05/11 02:47:51;;;;;;;6.23;3.83;;;;;;;8.35;nan;100575.59;4904211;29;20036;-67
2023/05/11 02:50:16;;;;;;;6.95;3.75;;;;;;;;;;4901109;29;20287;-67
2023/05/11 02:52:43;;;;;;;7.53;4.38;;;;;;;;;;4903177;29;20062;-68
2023/05/11 02:55:09;;;;;;;8.43;4.13;;;;;;;;;;4905237;29;20481;-68
2023/05/11 02:57:35;;;;;;;7.32;4.07;;;;;;;;;;4905477;29;20039;-67
2023/05/11 03:00:00;;;;;;;6.40;3.75;;;;;;;;;;4904362;29;20032;-66
2023/05/11 03:02:25;;;;;;;6.30;3.85;;;;;;;;;;4902594;29;20036;-68
2023/05/11 03:04:51;;;;;;;8.00;4.60;;;;;;;;;;4903192;29;20024;-67
2023/05/11 03:07:16;;;;;;;11.80;4.03;;;;;;;;;;4903287;29;20040;-67
2023/05/11 03:09:42;;;;;;;5.93;4.10;;;;;;;;;;4904566;29;20099;-67
2023/05/11 03:12:08;;;;;;;9.68;4.05;;;;;;;;;;4902508;29;20029;-66
2023/05/11 03:14:34;;;;;;;7.38;4.30;;;;;;;;;;4902843;29;20043;-67
2023/05/11 03:17:00;;;;;;;10.65;4.85;;;;;;;;;;4905289;29;20040;-64
2023/05/11 03:19:29;;;;;;;8.15;4.00;;;;;;;;;;4911534;29;20040;-67
2023/05/11 03:21:55;;;;;;;;;;;;;;;;;;4909483;29;20028;-68
2023/05/11 03:24:20;;;;;;;8.48;4.25;;;;;;;;;;4904603;29;19946;-67
2023/05/11 03:26:46;;;;;;;6.13;4.00;;;;;;;;;;4902291;29;20056;-67
2023/05/11 03:29:12;;;;;;;6.00;4.28;;;;;;;;;;4917468;29;20297;-67
2023/05/11 03:31:37;;;;;;;11.18;4.25;;;;;;;;;;4923180;29;20036;-66
2023/05/11 03:34:02;;;;;;;7.75;3.95;;;;;;;;;;4920985;29;20031;-66
2023/05/11 03:36:28;;;;;;;7.37;4.27;;;;;;;;;;4925420;29;20034;-66
2023/05/11 03:38:55;;;;;;;4.97;3.80;;;;;;;;;;4936245;29;20034;-67
2023/05/11 03:41:21;;;;;;;6.90;4.18;;;;;;;;;;4925183;29;20036;-66
2023/05/11 03:43:48;;;;;;;5.95;4.00;;;;;;;;;;4924670;29;20402;-66
2023/05/11 03:46:15;;;;;;;6.68;3.70;;;;;;;;;;4921263;29;20036;-66
2023/05/11 03:48:41;;;;;;;5.40;4.10;;;;;;;;;;4929583;29;20468;-66
2023/05/11 03:51:08;;;;;;;10.93;4.05;;;;;;;;;;4932333;29;20048;-66
2023/05/11 03:53:33;;;;;;;13.95;4.35;;;;;;;;;;4932982;29;20043;-67
2023/05/11 03:55:59;;;;;;;10.38;4.22;;;;;;;;;;4934724;29;20039;-69
2023/05/11 03:58:24;;;;;;;6.45;3.90;;;;;;;;;;4912935;29;20060;-71
2023/05/11 04:00:49;;;;;;;5.60;3.88;;;;;;;;;;4917621;29;20087;-70
2023/05/11 04:03:15;;;;;;;6.37;4.20;;;;;;;8.88;nan;100601.72;4924048;29;20067;-70
2023/05/11 04:05:40;;;;;;;5.85;4.00;;;;;;;;;;4920052;29;20372;-70
2023/05/11 04:08:06;;;;;;;10.23;3.83;;;;;;;;;;4921969;29;20058;-70
2023/05/11 04:10:31;;;;;;;8.93;4.30;;;;;;;;;;4902109;29;20777;-71
2023/05/11 04:12:56;;;;;;;9.52;3.70;;;;;;;;;;4924895;29;20062;-72
2023/05/11 04:15:22;;;;;;;7.00;3.60;;;;;;;;;;4921495;29;20055;-69
2023/05/11 04:17:47;;;;;;;12.02;4.13;;;;;;;;;;4918198;29;20090;-72
2023/05/11 04:20:12;;;;;;;7.88;3.72;;;;;;;9.43;nan;100603.81;4924020;29;20102;-71
2023/05/11 04:22:38;;;;;;;9.13;3.92;;;;;;;;;;4922245;29;20497;-72
2023/05/11 04:25:03;;;;;;;8.97;3.93;;;;;;;;;;4923194;29;20138;-71
2023/05/11 04:27:31;;;;;;;7.88;4.10;;;;;;;;;;4918429;29;20078;-73
2023/05/11 04:29:56;;;;;;;7.45;3.78;;;;;;;;;;4918542;29;20062;-72
2023/05/11 04:32:22;;;;;;;15.87;4.03;;;;;;;;;;4918415;29;20371;-73
2023/05/11 04:34:47;;;;;;;11.70;3.72;;;;;;;;;;4910758;29;20281;-73
2023/05/11 04:37:12;;;;;;;9.50;3.50;;;;;;;;;;4908564;29;20073;-74
2023/05/11 04:39:38;;;;;;;7.07;3.70;;;;;;;;;;4914528;29;20780;-73
2023/05/11 04:42:03;;;;;;;6.05;3.35;;;;;;;;;;4920345;29;20031;-73
2023/05/11 04:44:28;;;;;;;10.00;4.07;;;;;;;;;;4920026;29;20036;-74
2023/05/11 04:46:54;;;;;;;6.67;3.43;;;;;;;;;;4920762;29;20036;-72
2023/05/11 04:49:19;;;;;;;5.93;3.72;;;;;;;;;;4921474;29;20692;-74
2023/05/11 04:51:45;;;;;;;8.02;3.67;;;;;;;;;;4920304;29;20035;-74
2023/05/11 04:54:10;;;;;;;10.25;4.63;;;;;;;;;;4917854;29;20083;-73
2023/05/11 04:56:39;;;;;;;8.43;3.23;;;;;;;;;;4920506;29;20024;-73
2023/05/11 04:59:04;;;;;;;8.88;3.45;;;;;;;;;;4910721;29;20534;-74
2023/05/11 05:01:30;;;;;;;6.60;3.58;;;;;;;;;;4924704;29;20062;-72
2023/05/11 05:03:55;;;;;;;8.20;4.07;;;;;;;;;;4912919;29;20024;-70
2023/05/11 05:06:20;;;;;;;12.63;3.67;;;;;;;;;;4922254;29;20039;-72
2023/05/11 05:08:45;;;;;;;11.47;3.60;;;;;;;;;;4908329;29;20278;-72
2023/05/11 05:11:11;;;;;;;8.53;3.43;;;;;;;;;;4921901;29;20976;-72
2023/05/11 05:13:36;;;;;;;8.57;3.47;;;;;;;;;;4907630;29;20337;-72
2023/05/11 05:16:01;;;;;;;8.57;3.97;;;;;;;;;;4921684;29;20278;-71
2023/05/11 05:18:26;;;;;;;8.20;3.67;;;;;;;;;;4920344;29;20441;-72
2023/05/11 05:20:52;;;;;;;9.67;3.93;;;;;;;;;;4919559;29;20032;-71
2023/05/11 05:23:17;;;;;;;7.13;3.50;;;;;;;;;;4918689;29;20271;-73
2023/05/11 05:25:42;;;;;;;5.90;3.80;;;;;;;;;;4907492;29;20032;-70
2023/05/11 05:28:07;;;;;;;7.70;3.67;;;;;;;;;;4917271;29;20302;-72
2023/05/11 05:30:33;;;;;;;6.87;3.70;;;;;;;;;;4919135;29;20044;-71
2023/05/11 05:32:58;;;;;;;12.10;3.80;;;;;;;;;;4921135;29;20032;-69
2023/05/11 05:35:23;;;;;;;8.63;3.85;;;;;;;;;;4905919;29;20458;-75
2023/05/11 05:37:48;;;;;;;8.80;3.50;;;;;;;;;;4910127;29;20134;-76
2023/05/11 05:40:14;;;;;;;8.83;4.10;;;;;;;;;;4921098;29;20541;-76
2023/05/11 05:42:39;;;;;;;6.75;3.50;;;;;;;;;;4920218;29;20047;-72
2023/05/11 05:45:05;;;;;;;8.45;3.80;;;;;;;;;;4922203;29;20040;-71
2023/05/11 05:47:30;;;;;;;6.70;3.58;;;;;;;;;;4921059;29;20030;-70
2023/05/11 05:49:55;;;;;;;7.77;4.43;;;;;;;;;;4917247;29;20075;-71
2023/05/11 05:52:20;;;;;;;12.83;3.77;;;;;;;;;;4921067;29;20028;-74
2023/05/11 05:54:46;;;;;;;5.87;3.17;;;;;;;;;;4921075;29;20036;-70
2023/05/11 05:57:11;;;;;;;7.40;3.60;;;;;;;;;;4921504;29;20731;-68
2023/05/11 05:59:36;;;;;;;14.00;3.60;;;;;;;12.85;nan;100587.53;4919293;29;20111;-67
2023/05/11 06:02:01;;;;;;;10.48;3.20;;;;;;;;;;4918407;29;20047;-68
2023/05/11 06:04:27;;;;;;;5.87;2.97;;;;;;;;;;4922237;29;20043;-67
2023/05/11 06:06:52;;;;;;;4.83;3.10;;;;;;;;;;4923038;29;20321;-70
2023/05/11 06:09:17;;;;;;;5.50;3.05;;;;;;;;;;4923459;29;20198;-69
2023/05/11 06:11:42;;;;;;;4.23;2.90;;;;;;;;;;4923461;29;20031;-68
2023/05/11 06:14:08;;;;;;;4.40;3.00;;;;;;;;;;4907367;29;20304;-70
2023/05/11 06:16:33;;;;;;;5.20;3.03;;;;;;;;;;4922811;29;20039;-68
2023/05/11 06:18:58;;;;;;;8.87;3.27;;;;;;;;;;4911552;29;20665;-68
2023/05/11 06:21:23;;;;;;;8.67;3.17;;;;;;;;;;4923886;29;20040;-68
2023/05/11 06:23:49;;;;;;;8.60;3.47;;;;;;;;;;4912226;29;20177;-70
2023/05/11 06:26:14;;;;;;;7.40;3.20;;;;;;;;;;4922533;29;20048;-69
2023/05/11 06:28:39;;;;;;;5.03;2.90;;;;;;;;;;4902841;29;20111;-68
2023/05/11 06:31:05;;;;;;;9.50;2.70;;;;;;;;;;4903920;29;20047;-69
2023/05/11 06:33:30;;;;;;;10.97;3.23;;;;;;;;;;4905459;29;20035;-69
2023/05/11 06:35:55;;;;;;;8.97;3.07;;;;;;;;;;4904829;29;20317;-68
2023/05/11 06:38:20;;;;;;;5.80;3.20;;;;;;;;;;4912255;29;20039;-70
2023/05/11 06:40:46;;;;;;;5.50;3.17;;;;;;;;;;4901401;29;20036;-70
2023/05/11 06:43:11;;;;;;;11.23;3.08;;;;;;;;;;4904424;29;20715;-70
2023/05/11 06:45:36;;;;;;;8.03;2.67;;;;;;;;;;4914481;29;20471;-70
2023/05/11 06:48:02;;;;;;;7.73;3.80;;;;;;;;;;4915135;29;20028;-70
2023/05/11 06:50:27;;;;;;;10.57;3.42;;;;;;;;;;4906463;29;20159;-70
2023/05/11 06:52:53;;;;;;;7.17;3.40;;;;;;;;;;4905452;29;20040;-70
2023/05/11 06:55:18;;;;;;;7.22;2.88;;;;;;;;;;4904427;29;20051;-70
2023/05/11 06:57:43;;;;;;;7.95;2.80;;;;;;;;;;4912754;29;20036;-70
2023/05/11 07:00:09;;;;;;;4.67;2.90;;;;;;;;;;4915908;29;20028;-70
2023/05/11 07:02:34;;;;;;;4.95;2.75;;;;;;;;;;4909498;29;20167;-69
2023/05/11 07:04:59;;;;;;;5.33;3.20;;;;;;;;;;4913669;29;20518;-69
2023/05/11 07:07:25;;;;;;;8.37;3.20;;;;;;;;;;4911496;29;20303;-70
2023/05/11 07:09:50;;;;;;;5.93;2.93;;;;;;;;;;4905412;29;20064;-69
2023/05/11 07:12:15;;;;;;;4.47;2.80;;;;;;;;;;4908886;29;20084;-69
2023/05/11 07:14:41;;;;;;;8.25;3.00;;;;;;;;;;4906154;29;20749;-70
2023/05/11 07:17:06;;;;;;;7.68;3.47;;;;;;;;;;4902589;29;20523;-68
2023/05/11 07:19:31;;;;;;;5.53;3.43;;;;;;;;;;4909086;29;20482;-70
2023/05/11 07:21:57;;;;;;;4.40;3.08;;;;;;;;;;4903811;29;20095;-69
2023/05/11 07:24:22;;;;;;;4.20;3.10;;;;;;;;;;4902577;29;20028;-68
2023/05/11 07:26:48;;;;;;;5.77;3.03;;;;;;;;;;4909073;29;20131;-69
2023/05/11 07:29:14;;;;;;;5.18;2.60;;;;;;;;;;4917843;29;20453;-70
2023/05/11 07:31:39;;;;;;;5.70;2.90;;;;;;;;;;4920803;29;20921;-69
2023/05/11 07:34:05;;;;;;;7.07;2.80;;;;;;;;;;4920479;29;20508;-69
2023/05/11 07:36:30;;;;;;;5.35;3.13;;;;;;;;;;4922746;29;20028;-68
2023/05/11 07:38:56;;;;;;;4.97;3.08;;;;;;;;;;4909559;29;20550;-70
2023/05/11 07:41:25;;;;;;;7.55;3.30;;;;;;;;;;4910044;29;20506;-69
2023/05/11 07:43:50;;;;;;;4.47;2.80;;;;;;;;;;4919621;29;20163;-69
2023/05/11 07:46:16;;;;;;;7.40;2.67;;;;;;;;;;4923311;29;20142;-70
2023/05/11 07:48:41;;;;;;;6.60;2.80;;;;;;;;;;4905117;29;20046;-70
2023/05/11 07:51:06;;;;;;;8.17;2.90;;;;;;;;;;4921127;29;20028;-70
2023/05/11 07:53:31;;;;;;;5.70;2.70;;;;;;;;;;4912310;29;20039;-69
2023/05/11 07:55:58;;;;;;;5.03;2.65;;;;;;;;;;4921815;29;20357;-70
2023/05/11 07:58:23;;;;;;;6.05;3.03;;;;;;;;;;4919857;29;20034;-68
2023/05/11 08:00:49;;;;;;;3.08;2.78;;;;;;;;;;4922249;29;20024;-69
2023/05/11 08:03:14;;;;;;;3.92;2.92;;;;;;;;;;4910794;29;20047;-69
2023/05/11 08:05:40;;;;;;;6.53;2.92;;;;;;;;;;4919354;29;20075;-69
2023/05/11 08:08:05;;;;;;;8.73;2.83;;;;;;;;;;4922181;29;20035;-69
2023/05/11 08:10:30;;;;;;;4.20;2.42;;;;;;;;;;4921792;29;20398;-70
2023/05/11 08:12:56;;;;;;;4.70;2.70;;;;;;;;;;4913035;29;20028;-69
2023/05/11 08:15:21;;;;;;;3.75;2.70;;;;;;;;;;4924844;29;20098;-69
2023/05/11 08:17:46;;;;;;;4.20;2.80;;;;;;;;;;4922126;29;20032;-69
2023/05/11 08:20:12;;;;;;;5.00;2.60;;;;;;;;;;4921653;29;20676;-68
2023/05/11 08:22:37;;;;;;;4.28;2.50;;;;;;;;;;4918859;29;20291;-69
2023/05/11 08:25:02;;;;;;;4.00;2.53;;;;;;;;;;4918901;29;20896;-69
2023/05/11 08:27:27;;;;;;;5.82;2.53;;;;;;;;;;4920148;29;20920;-70
2023/05/11 08:29:53;;;;;;;5.20;2.70;;;;;;;;;;4909784;29;20111;-69
2023/05/11 08:32:19;;;;;;;4.60;2.35;;;;;;;;;;4904519;29;20338;-69
2023/05/11 08:34:44;;;;;;;5.33;2.70;;;;;;;;;;4921218;29;20083;-69
2023/05/11 08:37:09;;;;;;;3.22;2.22;;;;;;;;;;4922154;29;20545;-70
2023/05/11 08:39:35;;;;;;;3.93;2.60;;;;;;;;;;4920621;29;20092;-68
2023/05/11 08:42:01;;;;;;;3.27;2.07;;;;;;;;;;4920637;29;20032;-69
2023/05/11 08:44:28;;;;;;;6.20;2.53;;;;;;;;;;4922145;29;21247;-69
2023/05/11 08:46:53;;;;;;;2.53;2.17;;;;;;;;;;4921320;29;20475;-68
2023/05/11 08:49:19;;;;;;;3.27;2.60;;;;;;;;;;4919102;29;20107;-67
2023/05/11 08:51:45;;;;;;;8.60;2.13;;;;;;;;;;4904490;29;20047;-66
2023/05/11 08:54:11;;;;;;;6.60;2.05;;;;;;;;;;4919298;29;20024;-70
2023/05/11 08:56:38;;;;;;;8.20;2.50;;;;;;;;;;4901808;29;20128;-67
2023/05/11 08:59:05;;;;;;;4.30;2.10;;;;;;;;;;4919481;29;20371;-68
2023/05/11 09:01:30;;;;;;;6.88;2.40;;;;;;;;;;4922397;29;20067;-69
2023/05/11 09:03:57;;;;;;;3.63;2.47;;;;;;;;;;4920439;29;20059;-69
2023/05/11 09:06:23;;;;;;;4.68;2.22;;;;;;;;;;4920774;29;20715;-68
2023/05/11 09:08:48;;;;;;;3.53;2.20;;;;;;;;;;4919854;29;20537;-68
2023/05/11 09:11:14;;;;;;;6.05;2.42;;;;;;;;;;4911986;29;20035;-69
2023/05/11 09:13:39;;;;;;;5.88;2.40;;;;;;;;;;4918914;29;20020;-69
2023/05/11 09:16:04;;;;;;;6.80;2.40;;;;;;;;;;4920398;29;20138;-69
2023/05/11 09:18:30;;;;;;;11.52;2.78;;;;;;;;;;4910362;29;20067;-68
2023/05/11 09:20:55;;;;;;;5.47;2.17;;;;;;;18.10;nan;100536.72;4919328;29;20032;-67
2023/05/11 09:23:24;;;;;;;5.00;2.28;;;;;;;;;;4902932;29;20059;-68
2023/05/11 09:25:49;;;;;;;2.78;1.88;;;;;;;;;;4917090;29;20024;-70
2023/05/11 09:28:17;;;;;;;7.40;1.90;;;;;;;;;;4921960;29;20051;-69
2023/05/11 09:30:43;;;;;;;2.10;1.70;;;;;;;;;;4920370;29;20684;-69
2023/05/11 09:33:08;;;;;;;3.25;1.70;;;;;;;;;;4920703;29;20040;-69
2023/05/11 09:35:34;;;;;;;4.70;1.70;;;;;;;;;;4905323;29;20683;-69
2023/05/11 09:37:59;;;;;;;3.97;1.70;;;;;;;;;;4919142;29;20027;-69
2023/05/11 09:40:27;;;;;;;3.60;1.80;;;;;;;;;;4919947;29;20031;-69
2023/05/11 09:42:53;;;;;;;3.65;1.40;;;;;;;18.43;nan;100549.38;4909474;29;20055;-69
2023/05/11 09:45:37;;;;;;;4.10;1.95;;;;;;;;;;4920166;29;20074;-69
2023/05/11 09:48:03;;;;;;;2.17;1.70;;;;;;;;;;4919521;29;20427;-69
2023/05/11 09:50:33;;;;;;;4.93;1.70;;;;;;;;;;4901584;29;20111;-69
2023/05/11 09:52:58;;;;;;;;;;;;;;;;;;4905683;29;20032;-68
2023/05/11 09:55:23;;;;;;;7.60;1.97;;;;;;;;;;4919211;29;20415;-69
2023/05/11 09:57:53;;;;;;;5.22;1.70;;;;;;;;;;4917665;29;20287;-70
2023/05/11 10:00:18;;;;;;;4.03;1.77;;;;;;;;;;4916954;29;20032;-69
2023/05/11 10:02:44;;;;;;;4.87;1.37;;;;;;;;;;4920134;29;20040;-69
2023/05/11 10:05:11;;;;;;;6.55;1.92;;;;;;;;;;4902056;29;20291;-69
2023/05/11 10:07:37;;;;;;;2.42;1.85;;;;;;;;;;4918293;29;20028;-70
2023/05/11 10:10:03;;;;;;;3.00;2.13;;;;;;;;;;4919812;29;20746;-69
2023/05/11 10:12:31;;;;;;;6.82;1.88;;;;;;;;;;4919902;29;20080;-69
2023/05/11 10:15:07;;;;;;;5.68;1.98;;;;;;;18.82;nan;100543.34;4919843;29;20035;-69
2023/05/11 10:17:33;;;;;;;2.38;1.98;;;;;;;;;;4918873;29;20059;-69
2023/05/11 10:20:00;;;;;;;4.25;1.80;;;;;;;;;;4905601;29;20055;-69
2023/05/11 10:22:26;;;;;;;2.78;1.80;;;;;;;;;;4927091;29;20032;-68
2023/05/11 10:24:52;;;;;;;1.83;1.50;;;;;;;;;;4914522;29;20095;-70
2023/05/11 10:27:17;;;;;;;6.30;1.60;;;;;;;;;;4925665;29;20087;-70
2023/05/11 10:29:44;;;;;;;2.33;1.83;;;;;;;19.03;nan;100479.16;4923773;29;20048;-68
2023/05/11 10:32:10;;;;;;;2.55;1.73;;;;;;;19.06;nan;100487.41;4924049;29;20032;-69
2023/05/11 10:34:38;;;;;;;7.53;1.70;;;;;;;;;;4921831;29;20038;-68
2023/05/11 10:37:03;;;;;;;8.73;1.73;;;;;;;;;;4906049;29;20036;-69
2023/05/11 10:39:29;;;;;;;6.05;2.67;;;;;;;;;;4920380;29;20039;-70
2023/05/11 10:42:51;;;;;;;4.47;1.88;;;;;;;19.23;nan;100479.00;4920250;29;20131;-69
2023/05/11 10:45:29;;;;;;;3.45;1.95;;;;;;;19.27;nan;100473.88;4879869;29;20032;-68
2023/05/11 10:48:01;;;;;;;2.53;1.67;;;;;;;19.24;nan;100464.56;4880927;29;20092;-68
2023/05/11 10:51:00;;;;;;;3.17;1.40;;;;;;;19.23;nan;100467.53;4880982;29;20053;-69
2023/05/11 10:53:25;;;;;;;;;;;;;;;19.22;nan;100439.22;4886549;29;20036;-69
2023/05/11 10:56:15;;;;;;;7.40;1.57;;;;;;;;;;4884707;29;19959;-69
2023/05/11 10:59:21;;;;;;;3.33;1.70;;;;;;;19.19;nan;100469.16;4882908;29;20439;-71
2023/05/11 11:01:53;;;;;;;6.13;1.80;;;;;;;19.18;nan;100534.28;4883410;29;20033;-70
2023/05/11 11:04:19;;;;;;;2.17;1.73;;;;;;;19.13;nan;100460.41;4867742;29;20033;-70
2023/05/11 11:06:45;;;;;;;4.13;1.55;;;;;;;19.12;nan;100451.59;4867020;29;20035;-71
2023/05/11 11:09:13;;;;;;;7.60;1.52;;;;;;;19.12;nan;100467.59;4884055;29;20040;-70
2023/05/11 11:11:41;;;;;;;3.90;1.63;;;;;;;19.08;nan;100463.91;4868339;29;20048;-69
2023/05/11 11:14:08;;;;;;;2.35;1.42;;;;;;;18.99;nan;100452.25;4885068;29;20029;-68
2023/05/11 11:16:37;;;;;;;4.10;1.90;;;;;;;;;;4893979;29;20062;-68
2023/05/11 11:19:30;;;;;;;7.47;1.80;;;;;;;18.86;nan;100485.69;4922766;29;20028;-68
2023/05/11 11:21:57;;;;;;;3.75;1.65;;;;;;;18.87;nan;100465.16;4922125;29;20040;-69
2023/05/11 11:24:51;;;;;;;3.03;1.52;;;;;;;;;;4913202;29;20412;-71
2023/05/11 11:27:17;;;;;;;5.78;2.53;;;;;;;;;;4904096;29;20657;-71
2023/05/11 11:30:14;;;;;;;6.90;1.63;;;;;;;18.85;nan;100456.63;4908323;29;20052;-71
2023/05/11 11:32:40;;;;;;;6.20;1.50;;;;;;;18.86;nan;100515.03;4922484;29;20290;-71
2023/05/11 11:35:40;;;;;;;4.05;1.83;;;;;;;18.89;nan;100457.63;4903142;29;20039;-70
2023/05/11 11:38:18;;;;;;;2.40;1.90;;;;;;;;;;4922118;29;20497;-70
2023/05/11 11:40:53;;;;;;;4.10;1.83;;;;;;;;;;4918217;29;20052;-70
2023/05/11 11:43:24;;;;;;;2.95;1.90;;;;;;;18.75;nan;100520.66;4917644;29;20040;-70
2023/05/11 11:45:53;;;;;;;6.47;1.70;;;;;;;;;;4922046;29;20391;-70
2023/05/11 11:48:27;;;;;;;5.20;1.90;;;;;;;;;;4911900;29;20032;-70
2023/05/11 11:51:00;;;;;;;5.47;2.25;;;;;;;;;;4908036;29;20027;-70
2023/05/11 11:53:42;;;;;;;2.67;1.80;;;;;;;;;;4920325;29;20530;-70
2023/05/11 11:56:28;;;;;;;5.57;1.77;;;;;;;;;;4920814;29;20032;-70
2023/05/11 11:58:57;;;;;;;4.63;1.52;;;;;;;;;;4913083;29;20044;-70
2023/05/11 12:01:28;;;;;;;3.92;1.60;;;;;;;18.42;nan;100577.13;4923216;29;20760;-70
2023/05/11 12:04:03;;;;;;;2.75;1.90;;;;;;;;;;4920745;29;20028;-69
2023/05/11 12:06:36;;;;;;;3.67;1.70;;;;;;;18.33;nan;100488.09;4919673;29;20025;-70
2023/05/11 12:09:03;;;;;;;2.78;1.80;;;;;;;;;;4920476;29;20102;-70
2023/05/11 12:11:29;;;;;;;7.75;2.10;;;;;;;;;;4922343;29;20043;-68
2023/05/11 12:13:54;;;;;;;7.25;1.85;;;;;;;;;;4926176;29;20390;-69
2023/05/11 12:16:20;;;;;;;3.78;1.60;;;;;;;;;;4922598;29;20115;-68
2023/05/11 12:18:52;;;;;;;3.65;1.63;;;;;;;;;;4906194;29;20039;-70
2023/05/11 12:21:21;;;;;;;4.78;1.85;;;;;;;;;;4902960;29;20036;-70
2023/05/11 12:23:58;;;;;;;1.92;1.55;;;;;;;18.20;nan;100454.88;4918659;29;20099;-70
2023/05/11 12:26:25;;;;;;;3.25;1.70;;;;;;;;;;4918165;29;20090;-70
2023/05/11 12:28:51;;;;;;;5.32;1.83;;;;;;;;;;4924077;29;20056;-67
2023/05/11 12:31:17;;;;;;;2.05;1.73;;;;;;;18.18;nan;100442.88;4912992;29;20463;-68
2023/05/11 12:33:50;;;;;;;8.07;2.30;;;;;;;;;;4919649;29;20048;-69
2023/05/11 12:36:15;;;;;;;10.68;2.08;;;;;;;;;;4918384;29;20029;-70
2023/05/11 12:38:47;;;;;;;10.23;1.80;;;;;;;;;;4919981;29;20036;-70
2023/05/11 12:41:22;;;;;;;2.65;1.70;;;;;;;;;;4919246;29;20036;-71
2023/05/11 12:43:50;;;;;;;8.57;1.83;;;;;;;;;;4904120;29;20103;-68
2023/05/11 12:46:19;;;;;;;8.68;1.80;;;;;;;;;;4921236;29;20039;-68
2023/05/11 12:48:45;;;;;;;2.28;1.70;;;;;;;;;;4919485;29;20031;-68
2023/05/11 12:51:10;;;;;;;3.42;1.75;;;;;;;;;;4922708;29;20390;-67
2023/05/11 12:53:37;;;;;;;2.20;1.90;;;;;;;;;;4921179;29;20030;-70
2023/05/11 12:56:03;;;;;;;3.30;1.60;;;;;;;18.26;nan;100423.63;4921294;29;20028;-70
2023/05/11 12:58:36;;;;;;;3.65;1.60;;;;;;;;;;4921013;29;20051;-72
2023/05/11 13:01:01;;;;;;;3.88;1.90;;;;;;;;;;4921348;29;20043;-69
2023/05/11 13:03:27;;;;;;;2.70;1.77;;;;;;;;;;4919444;29;20027;-65
2023/05/11 13:06:12;;;;;;;3.10;1.63;;;;;;;;;;4919326;29;21154;-71
2023/05/11 13:08:39;;;;;;;11.07;1.95;;;;;;;;;;4919711;29;20067;-69
2023/05/11 13:11:16;;;;;;;8.80;2.03;;;;;;;;;;4918715;29;20478;-71
2023/05/11 13:13:41;;;;;;;2.95;1.55;;;;;;;;;;4921849;29;20043;-70
2023/05/11 13:16:06;;;;;;;3.03;1.70;;;;;;;;;;4919940;29;20035;-68
2023/05/11 13:18:32;;;;;;;5.57;1.90;;;;;;;;;;4905871;29;20286;-70
2023/05/11 13:21:07;;;;;;;3.65;1.90;;;;;;;;;;4912241;29;20277;-69
2023/05/11 13:23:32;;;;;;;1.83;1.67;;;;;;;;;;4918746;29;20036;-73
2023/05/11 13:25:58;;;;;;;4.45;1.67;;;;;;;;;;4918674;29;20036;-72
2023/05/11 13:28:24;;;;;;;2.83;1.67;;;;;;;17.48;nan;100488.06;4920920;29;20421;-71
2023/05/11 13:30:50;;;;;;;4.22;1.80;;;;;;;;;;4918487;29;20047;-71
2023/05/11 13:33:15;;;;;;;8.98;2.83;;;;;;;;;;4917176;29;20096;-71
2023/05/11 13:35:41;;;;;;;4.65;1.52;;;;;;;;;;4919375;29;20023;-71
2023/05/11 13:38:06;;;;;;;8.35;1.80;;;;;;;;;;4919262;29;20039;-71
2023/05/11 13:40:32;;;;;;;2.63;1.55;;;;;;;;;;4922822;29;20028;-71
2023/05/11 13:42:59;;;;;;;3.33;1.55;;;;;;;;;;4920599;29;20055;-72
2023/05/11 13:45:24;;;;;;;4.28;1.60;;;;;;;;;;4906474;29;20036;-74
2023/05/11 13:47:50;;;;;;;4.88;1.50;;;;;;;17.22;nan;100408.28;4926412;29;20086;-73
2023/05/11 13:50:15;;;;;;;1.88;1.50;;;;;;;;;;4919530;29;20067;-72
2023/05/11 13:52:41;;;;;;;7.70;2.35;;;;;;;17.21;nan;100459.88;4922367;29;20024;-73
2023/05/11 13:55:06;;;;;;;4.05;1.65;;;;;;;;;;4921921;29;20047;-72
2023/05/11 13:57:32;;;;;;;8.60;1.40;;;;;;;;;;4920157;29;20036;-73
2023/05/11 13:59:57;;;;;;;2.37;1.40;;;;;;;;;;4919529;29;20118;-72
2023/05/11 14:02:22;;;;;;;9.57;2.23;;;;;;;;;;4921705;29;20290;-73
2023/05/11 14:04:47;;;;;;;3.80;1.50;;;;;;;;;;4922665;29;20122;-74
2023/05/11 14:07:14;;;;;;;5.43;1.80;;;;;;;;;;4920383;29;20283;-71
2023/05/11 14:09:39;;;;;;;15.95;2.50;;;;;;;;;;4918530;29;20417;-70
2023/05/11 14:12:05;;;;;;;11.68;2.10;;;;;;;;;;4909815;29;20036;-71
2023/05/11 14:14:30;;;;;;;9.82;2.30;;;;;;;;;;4920069;29;20035;-73
2023/05/11 14:16:55;;;;;;;4.40;1.97;;;;;;;;;;4922921;29;20030;-71
2023/05/11 14:19:21;;;;;;;4.33;2.00;;;;;;;;;;4935094;29;20031;-71
2023/05/11 14:21:47;;;;;;;7.97;2.50;;;;;;;;;;4936755;29;20024;-71